Terminal Aerodrome Forecast
Issued by NWS Portland, OR

Home | Current Version | Previous Version | Text Only | Print | Product List | Glossary On
Versions: 1 2 3 4 5 6 7 8 9 10 11 12 13 14 15
000
FTUS46 KPQR 281142
TAFEUG
TAF
KEUG 281142Z 2812/2912 19005KT P6SM SCT025 OVC040
     FM281600 18009KT P6SM SCT035 SCT060 OVC100
     FM290600 18012KT 6SM -RA SCT025 OVC040=

USA.gov is the U.S. government's official web portal to all federal, state and local government web resources and services.